createdAt,value
2022-11-06T00:01:14.670Z,99.90
2022-11-06T00:03:42.027Z,99.90
2022-11-06T00:06:32.607Z,99.90
2022-11-06T00:09:00.774Z,99.90
2022-11-06T00:11:27.934Z,99.90
2022-11-06T00:13:54.777Z,99.90
2022-11-06T00:16:21.824Z,99.90
2022-11-06T00:18:49.077Z,99.90
2022-11-06T00:21:27.809Z,99.90
2022-11-06T00:23:56.333Z,99.90
2022-11-06T00:26:26.804Z,99.90
2022-11-06T00:28:54.313Z,99.90
2022-11-06T00:31:23.788Z,99.90
2022-11-06T00:33:50.690Z,99.90
2022-11-06T00:36:20.316Z,99.90
2022-11-06T00:38:47.915Z,99.90
2022-11-06T00:41:16.409Z,99.90
2022-11-06T00:43:47.801Z,99.90
2022-11-06T00:46:15.348Z,99.90
2022-11-06T00:48:42.496Z,99.90
2022-11-06T00:51:14.162Z,99.90
2022-11-06T00:53:41.807Z,99.90
2022-11-06T00:56:17.427Z,99.90
2022-11-06T00:58:45.133Z,99.90
2022-11-06T01:01:17.686Z,99.90
2022-11-06T01:03:46.520Z,99.90
2022-11-06T01:06:19.114Z,99.90
2022-11-06T01:08:47.132Z,99.90
2022-11-06T01:11:16.201Z,99.90
2022-11-06T01:13:43.725Z,99.90
2022-11-06T01:16:13.690Z,99.90
2022-11-06T01:18:41.941Z,99.90
2022-11-06T01:21:11.534Z,99.90
2022-11-06T01:23:38.278Z,99.90
2022-11-06T01:26:08.037Z,99.90
2022-11-06T01:28:35.206Z,99.90
2022-11-06T01:31:13.385Z,99.90
2022-11-06T01:33:40.649Z,99.90
2022-11-06T01:36:10.117Z,99.90
2022-11-06T01:38:39.858Z,99.90
2022-11-06T01:41:06.869Z,99.90
2022-11-06T01:44:01.205Z,99.90
2022-11-06T01:46:34.265Z,99.90
2022-11-06T01:49:12.361Z,99.90
2022-11-06T01:52:01.509Z,99.90
2022-11-06T01:54:29.974Z,99.90
2022-11-06T01:56:59.102Z,99.90
2022-11-06T01:59:28.876Z,99.90
2022-11-06T02:01:55.819Z,99.90
2022-11-06T02:04:48.262Z,99.90
2022-11-06T02:07:16.756Z,99.90
2022-11-06T02:09:43.586Z,99.90
2022-11-06T02:12:40.040Z,99.90
2022-11-06T02:15:43.206Z,99.90
2022-11-06T02:18:38.092Z,99.90
2022-11-06T02:21:23.605Z,99.90
2022-11-06T02:24:16.532Z,99.90
2022-11-06T02:27:00.321Z,99.90
2022-11-06T02:29:32.754Z,99.90
2022-11-06T02:32:04.200Z,99.90
2022-11-06T02:34:31.386Z,99.90
2022-11-06T02:37:06.438Z,99.90
2022-11-06T02:39:37.176Z,99.90
2022-11-06T02:42:07.092Z,99.90
2022-11-06T02:44:37.552Z,99.90
2022-11-06T02:47:10.158Z,99.90
2022-11-06T02:49:45.416Z,99.90
2022-11-06T02:52:18.796Z,99.90
2022-11-06T02:54:50.894Z,99.90
2022-11-06T02:57:20.057Z,99.90
2022-11-06T02:59:55.745Z,99.90
2022-11-06T03:02:27.992Z,99.90
2022-11-06T03:05:17.818Z,99.90
2022-11-06T03:07:57.131Z,99.90
2022-11-06T03:10:29.877Z,99.90
2022-11-06T03:13:02.027Z,99.90
2022-11-06T03:16:01.174Z,99.90
2022-11-06T03:18:37.426Z,99.90
2022-11-06T03:21:10.845Z,99.90
2022-11-06T03:23:45.744Z,99.90
2022-11-06T03:26:22.383Z,99.90
2022-11-06T03:29:00.015Z,99.90
2022-11-06T03:31:33.297Z,99.90
2022-11-06T03:34:05.107Z,99.90
2022-11-06T03:36:36.285Z,99.90
2022-11-06T03:39:10.177Z,99.90
2022-11-06T03:42:06.089Z,99.90
2022-11-06T03:44:36.755Z,99.90
2022-11-06T03:47:12.558Z,99.90
2022-11-06T03:49:46.745Z,99.90
2022-11-06T03:52:17.770Z,99.90
2022-11-06T03:55:00.311Z,99.90
2022-11-06T03:57:51.003Z,99.90
2022-11-06T04:00:20.504Z,99.90
2022-11-06T04:02:53.403Z,99.90
2022-11-06T04:05:24.568Z,99.90
2022-11-06T04:08:14.113Z,99.90
2022-11-06T04:11:03.806Z,99.90
2022-11-06T04:13:52.645Z,99.90
2022-11-06T04:16:20.007Z,99.90
2022-11-06T04:18:46.758Z,99.90
2022-11-06T04:21:22.674Z,99.90
2022-11-06T04:24:37.063Z,99.90
2022-11-06T04:27:22.561Z,99.90
2022-11-06T04:30:12.570Z,99.90
2022-11-06T04:33:07.311Z,99.90
2022-11-06T04:35:55.316Z,99.90
2022-11-06T04:38:32.709Z,99.90
2022-11-06T04:41:16.391Z,99.90
2022-11-06T04:44:14.032Z,99.90
2022-11-06T04:46:53.140Z,99.90
2022-11-06T04:49:21.592Z,99.90
2022-11-06T04:51:49.158Z,99.90
2022-11-06T04:54:16.503Z,99.90
2022-11-06T04:56:46.421Z,99.90
2022-11-06T04:59:16.424Z,99.90
2022-11-06T05:01:43.359Z,99.90
2022-11-06T05:04:11.861Z,99.90
2022-11-06T05:06:38.633Z,99.90
2022-11-06T05:09:05.343Z,99.90
2022-11-06T05:11:32.318Z,99.90
2022-11-06T05:13:59.066Z,99.90
2022-11-06T05:16:25.803Z,99.90
2022-11-06T05:18:52.576Z,99.90
2022-11-06T05:21:37.934Z,99.90
2022-11-06T05:24:05.244Z,99.90
2022-11-06T05:26:32.782Z,99.90
2022-11-06T05:28:59.674Z,99.90
2022-11-06T05:31:26.619Z,99.90
2022-11-06T05:33:53.534Z,99.90
2022-11-06T05:36:20.290Z,99.90
2022-11-06T05:38:47.030Z,99.90
2022-11-06T05:41:13.825Z,99.90
2022-11-06T05:43:40.812Z,99.90
2022-11-06T05:46:23.881Z,99.90
2022-11-06T05:48:54.576Z,99.90
2022-11-06T05:51:21.800Z,99.90
2022-11-06T05:53:48.565Z,99.90
2022-11-06T05:56:15.333Z,99.90
2022-11-06T05:58:42.100Z,99.90
2022-11-06T06:01:10.513Z,99.90
2022-11-06T06:03:37.810Z,99.90
2022-11-06T06:06:04.796Z,99.90
2022-11-06T06:08:31.605Z,99.90
2022-11-06T06:10:58.337Z,99.90
2022-11-06T06:13:25.089Z,99.90
2022-11-06T06:15:51.837Z,99.90
2022-11-06T06:18:18.612Z,99.90
2022-11-06T06:20:45.390Z,99.90
2022-11-06T06:23:12.230Z,99.90
2022-11-06T06:25:38.952Z,99.90
2022-11-06T06:28:05.685Z,99.90
2022-11-06T06:30:32.551Z,99.90
2022-11-06T06:33:05.278Z,99.90
2022-11-06T06:35:32.825Z,99.90
2022-11-06T06:38:00.002Z,99.90
2022-11-06T06:40:29.775Z,99.90
2022-11-06T06:42:57.983Z,99.90
2022-11-06T06:45:25.556Z,99.90
2022-11-06T06:47:52.553Z,99.90
2022-11-06T06:50:19.415Z,99.90
2022-11-06T06:52:46.174Z,99.90
2022-11-06T06:55:13.061Z,99.90
2022-11-06T06:57:39.797Z,99.90
2022-11-06T07:00:07.183Z,99.90
2022-11-06T07:02:33.990Z,99.90
2022-11-06T07:05:00.824Z,99.90
2022-11-06T07:07:27.599Z,99.90
2022-11-06T07:09:54.350Z,99.90
2022-11-06T07:12:21.213Z,99.90
2022-11-06T07:14:47.978Z,99.90
2022-11-06T07:17:14.708Z,99.90
2022-11-06T07:19:41.405Z,99.90
2022-11-06T07:22:08.163Z,99.90
2022-11-06T07:24:34.925Z,99.90
2022-11-06T07:27:01.661Z,99.90
2022-11-06T07:29:28.582Z,99.90
2022-11-06T07:31:55.315Z,99.90
2022-11-06T07:34:22.035Z,99.90
2022-11-06T07:36:48.898Z,99.90
2022-11-06T07:39:15.772Z,99.90
2022-11-06T07:41:42.519Z,99.90
2022-11-06T07:44:09.471Z,99.90
2022-11-06T07:46:36.301Z,99.90
2022-11-06T07:49:03.147Z,99.90
2022-11-06T07:51:33.070Z,99.90
2022-11-06T07:53:59.863Z,99.90
2022-11-06T07:56:26.698Z,99.90
2022-11-06T07:58:53.518Z,99.90
2022-11-06T08:01:20.598Z,99.90
2022-11-06T08:03:47.563Z,99.90
2022-11-06T08:06:14.530Z,99.90
2022-11-06T08:08:44.547Z,99.90
2022-11-06T08:11:12.209Z,99.90
2022-11-06T08:13:45.077Z,99.90
2022-11-06T08:16:14.553Z,99.90
2022-11-06T08:18:41.986Z,99.90
2022-11-06T08:21:09.093Z,99.90
2022-11-06T08:23:36.680Z,99.90
2022-11-06T08:26:05.575Z,99.90
2022-11-06T08:28:32.321Z,99.90
2022-11-06T08:31:04.292Z,99.90
2022-11-06T08:33:31.358Z,99.90
2022-11-06T08:36:02.455Z,99.90
2022-11-06T08:38:29.471Z,99.90
2022-11-06T08:40:56.265Z,99.90
2022-11-06T08:43:26.693Z,99.90
2022-11-06T08:45:53.718Z,99.90
2022-11-06T08:48:20.566Z,99.90
2022-11-06T08:50:47.390Z,99.90
2022-11-06T08:53:14.491Z,99.90
2022-11-06T08:55:41.426Z,99.90
2022-11-06T08:58:08.519Z,99.90
2022-11-06T09:00:36.497Z,99.90
2022-11-06T09:03:13.879Z,99.90
2022-11-06T09:05:42.602Z,99.90
2022-11-06T09:08:10.290Z,99.90
2022-11-06T09:10:38.350Z,99.90
2022-11-06T09:13:05.471Z,99.90
2022-11-06T09:15:32.282Z,99.90
2022-11-06T09:17:59.074Z,99.90
2022-11-06T09:20:26.710Z,99.90
2022-11-06T09:22:53.543Z,99.90
2022-11-06T09:25:20.596Z,99.90
2022-11-06T09:27:58.523Z,99.90
2022-11-06T09:30:28.557Z,99.90
2022-11-06T09:33:01.115Z,97.60
2022-11-06T09:35:30.561Z,97.40
2022-11-06T09:38:10.173Z,99.90
2022-11-06T09:40:53.238Z,97.60
2022-11-06T09:44:04.094Z,98.20
2022-11-06T09:46:32.014Z,95.00
2022-11-06T09:49:13.699Z,95.90
2022-11-06T09:51:46.312Z,93.30
2022-11-06T09:54:19.926Z,95.00
2022-11-06T09:56:50.926Z,96.00
2022-11-06T09:59:20.436Z,95.40
2022-11-06T10:01:56.476Z,96.00
2022-11-06T10:04:29.381Z,93.60
2022-11-06T10:06:56.259Z,93.80
2022-11-06T10:09:23.068Z,93.50
2022-11-06T10:12:01.692Z,93.50
2022-11-06T10:15:00.961Z,93.80
2022-11-06T10:17:49.202Z,94.20
2022-11-06T10:20:27.260Z,92.60
2022-11-06T10:23:31.562Z,91.40
2022-11-06T10:26:21.605Z,93.50
2022-11-06T10:29:03.917Z,90.60
2022-11-06T10:31:49.264Z,91.80
2022-11-06T10:34:41.745Z,91.50
2022-11-06T10:37:13.378Z,91.40
2022-11-06T10:39:41.237Z,92.20
2022-11-06T10:42:24.291Z,90.00
2022-11-06T10:44:59.586Z,90.70
2022-11-06T10:47:38.996Z,88.70
2022-11-06T10:50:11.569Z,90.60
2022-11-06T10:52:44.644Z,89.80
2022-11-06T10:55:42.230Z,88.20
2022-11-06T10:58:12.918Z,87.30
2022-11-06T11:00:40.694Z,88.40
2022-11-06T11:03:19.510Z,87.30
2022-11-06T11:05:46.291Z,85.40
2022-11-06T11:08:31.103Z,90.00
2022-11-06T11:11:25.252Z,89.10
2022-11-06T11:14:13.602Z,90.20
2022-11-06T11:16:44.054Z,85.50
2022-11-06T11:19:25.422Z,87.80
2022-11-06T11:21:57.191Z,89.00
2022-11-06T11:24:24.382Z,89.20
2022-11-06T11:27:02.886Z,85.70
2022-11-06T11:29:33.082Z,86.00
2022-11-06T11:32:06.971Z,87.40
2022-11-06T11:34:37.355Z,85.50
2022-11-06T11:37:06.278Z,84.30
2022-11-06T11:39:39.804Z,84.60
2022-11-06T11:42:21.367Z,89.10
2022-11-06T11:44:48.234Z,85.30
2022-11-06T11:47:24.110Z,83.80
2022-11-06T11:49:51.107Z,85.30
2022-11-06T11:52:21.654Z,86.30
2022-11-06T11:54:52.749Z,87.70
2022-11-06T11:57:25.092Z,87.30
2022-11-06T11:59:56.386Z,88.00
2022-11-06T12:02:41.153Z,88.50
2022-11-06T12:05:13.133Z,86.00
2022-11-06T12:07:47.610Z,88.10
2022-11-06T12:10:33.042Z,85.90
2022-11-06T12:13:03.697Z,86.60
2022-11-06T12:16:01.216Z,89.10
2022-11-06T12:18:35.660Z,86.20
2022-11-06T12:21:24.224Z,87.10
2022-11-06T12:24:20.505Z,88.00
2022-11-06T12:27:04.904Z,85.70
2022-11-06T12:29:46.674Z,86.20
2022-11-06T12:32:31.768Z,87.90
2022-11-06T12:35:27.735Z,85.40
2022-11-06T12:38:22.239Z,86.70
2022-11-06T12:41:01.750Z,87.00
2022-11-06T12:43:43.203Z,86.50
2022-11-06T12:46:23.350Z,86.90
2022-11-06T12:48:59.011Z,85.60
2022-11-06T12:51:34.098Z,86.30
2022-11-06T12:54:25.341Z,84.60
2022-11-06T12:57:16.318Z,88.10
2022-11-06T13:00:07.698Z,87.90
2022-11-06T13:02:49.667Z,86.10
2022-11-06T13:05:25.376Z,85.90
2022-11-06T13:08:26.373Z,86.80
2022-11-06T13:11:19.729Z,86.20
2022-11-06T13:13:54.856Z,86.00
2022-11-06T13:16:51.231Z,86.30
2022-11-06T13:19:33.421Z,85.50
2022-11-06T13:22:18.673Z,85.10
2022-11-06T13:25:07.080Z,86.40
2022-11-06T13:27:50.374Z,84.50
2022-11-06T13:30:19.860Z,86.60
2022-11-06T13:33:14.556Z,85.70
2022-11-06T13:35:44.269Z,86.40
2022-11-06T13:38:34.867Z,85.40
2022-11-06T13:41:08.485Z,82.90
2022-11-06T13:43:44.031Z,86.10
2022-11-06T13:46:18.272Z,85.80
2022-11-06T13:49:06.361Z,85.10
2022-11-06T13:51:47.350Z,86.90
2022-11-06T13:54:46.496Z,86.90
2022-11-06T13:57:45.561Z,86.40
2022-11-06T14:00:53.347Z,88.80
2022-11-06T14:03:28.282Z,89.00
2022-11-06T14:06:26.378Z,87.40
2022-11-06T14:08:56.988Z,89.80
2022-11-06T14:11:36.907Z,87.20
2022-11-06T14:14:21.380Z,88.00
2022-11-06T14:17:16.026Z,90.40
2022-11-06T14:19:59.830Z,90.10
2022-11-06T14:22:36.403Z,88.80
2022-11-06T14:25:29.153Z,88.40
2022-11-06T14:27:55.874Z,86.30
2022-11-06T14:30:57.780Z,89.90
2022-11-06T14:33:40.331Z,90.10
2022-11-06T14:36:25.524Z,87.90
2022-11-06T14:38:53.646Z,89.80
2022-11-06T14:41:54.667Z,91.30
2022-11-06T14:44:32.365Z,90.40
2022-11-06T14:47:02.415Z,90.50
2022-11-06T14:49:38.220Z,89.60
2022-11-06T14:52:15.830Z,90.10
2022-11-06T14:54:58.407Z,90.30
2022-11-06T14:57:46.423Z,90.40
2022-11-06T15:00:34.486Z,90.60
2022-11-06T15:03:03.326Z,89.00
2022-11-06T15:05:31.375Z,90.40
2022-11-06T15:08:05.023Z,90.00
2022-11-06T15:10:44.681Z,89.40
2022-11-06T15:13:11.949Z,91.50
2022-11-06T15:15:49.056Z,90.90
2022-11-06T15:18:22.902Z,91.10
2022-11-06T15:21:10.818Z,92.80
2022-11-06T15:23:57.680Z,94.10
2022-11-06T15:26:43.092Z,95.30
2022-11-06T15:29:16.115Z,96.80
2022-11-06T15:31:47.094Z,97.60
2022-11-06T15:34:45.869Z,98.30
2022-11-06T15:37:30.851Z,98.10
2022-11-06T15:40:01.217Z,99.10
2022-11-06T15:42:33.530Z,99.90
2022-11-06T15:45:26.545Z,99.90
2022-11-06T15:48:00.031Z,99.90
2022-11-06T15:50:29.617Z,99.60
2022-11-06T15:53:30.078Z,99.80
2022-11-06T15:56:00.803Z,99.70
2022-11-06T16:01:39.497Z,99.90
2022-11-06T16:04:15.836Z,99.90
2022-11-06T16:06:44.384Z,99.90
2022-11-06T16:09:20.255Z,99.90
2022-11-06T16:11:49.950Z,99.90
2022-11-06T16:14:17.179Z,99.90
2022-11-06T16:16:52.132Z,99.90
2022-11-06T16:19:30.838Z,99.90
2022-11-06T16:22:19.335Z,99.90
2022-11-06T16:24:55.457Z,99.90
2022-11-06T16:27:24.068Z,99.90
2022-11-06T16:29:56.489Z,99.90
2022-11-06T16:36:12.323Z,99.90
2022-11-06T16:38:44.144Z,99.90
2022-11-06T16:41:11.631Z,99.90
2022-11-06T16:44:17.241Z,99.90
2022-11-06T16:51:02.118Z,99.90
2022-11-06T16:53:41.800Z,99.90
2022-11-06T16:56:08.799Z,99.90
2022-11-06T16:58:48.924Z,99.90
2022-11-06T17:01:20.485Z,99.90
2022-11-06T17:03:56.800Z,99.90
2022-11-06T17:06:34.829Z,99.90
2022-11-06T17:09:28.851Z,99.90
2022-11-06T17:11:57.460Z,99.90
2022-11-06T17:14:24.825Z,99.90
2022-11-06T17:16:53.363Z,99.90
2022-11-06T17:19:21.353Z,99.90
2022-11-06T17:21:48.956Z,99.90
2022-11-06T17:24:35.899Z,99.90
2022-11-06T17:27:02.414Z,99.90
2022-11-06T17:29:29.181Z,99.90
2022-11-06T17:31:56.702Z,99.90
2022-11-06T17:34:23.499Z,99.90
2022-11-06T17:36:50.326Z,99.90
2022-11-06T17:39:17.070Z,99.90
2022-11-06T17:41:43.819Z,99.90
2022-11-06T17:44:12.793Z,99.90
2022-11-06T17:46:42.185Z,99.90
2022-11-06T17:49:14.252Z,99.90
2022-11-06T17:52:01.773Z,99.90
2022-11-06T17:54:33.845Z,99.90
2022-11-06T17:57:02.338Z,99.90
2022-11-06T17:59:29.205Z,99.90
2022-11-06T18:01:57.421Z,99.90
2022-11-06T18:04:25.969Z,99.90
2022-11-06T18:07:22.876Z,99.90
2022-11-06T18:10:31.019Z,99.90
2022-11-06T18:13:03.861Z,99.90
2022-11-06T18:15:33.682Z,99.90
2022-11-06T18:18:00.402Z,99.90
2022-11-06T18:20:27.218Z,99.90
2022-11-06T18:22:54.048Z,99.90
2022-11-06T18:25:20.844Z,99.90
2022-11-06T18:27:47.628Z,99.90
2022-11-06T18:53:42.468Z,99.90
2022-11-06T18:56:10.535Z,99.90
2022-11-06T18:58:37.493Z,99.90
2022-11-06T19:01:15.206Z,99.90
2022-11-06T19:07:29.366Z,99.90
2022-11-06T19:09:56.122Z,99.90
2022-11-06T19:16:06.842Z,99.90
2022-11-06T19:18:36.924Z,99.90
2022-11-06T19:21:05.174Z,99.90
2022-11-06T19:23:32.059Z,99.90
2022-11-06T19:26:10.653Z,99.90
2022-11-06T19:28:44.717Z,99.90
2022-11-06T19:31:11.682Z,99.90
2022-11-06T19:33:38.497Z,99.90
2022-11-06T19:36:05.642Z,99.90
2022-11-06T19:38:32.399Z,99.90
2022-11-06T19:41:01.305Z,99.90
2022-11-06T19:43:29.324Z,99.90
2022-11-06T19:46:02.000Z,99.90
2022-11-06T19:48:30.753Z,99.90
2022-11-06T19:51:00.221Z,99.90
2022-11-06T19:53:28.127Z,99.90
2022-11-06T19:55:56.120Z,99.90
2022-11-06T19:58:23.046Z,99.90
2022-11-06T20:00:49.871Z,99.90
2022-11-06T20:03:17.262Z,99.90
2022-11-06T20:09:51.546Z,99.90
2022-11-06T20:12:18.571Z,99.90
2022-11-06T20:14:48.237Z,99.90
2022-11-06T20:17:15.221Z,99.90
2022-11-06T20:19:41.976Z,99.90
2022-11-06T20:22:08.818Z,99.90
2022-11-06T20:24:37.841Z,99.90
2022-11-06T20:27:10.180Z,99.90
2022-11-06T20:29:38.071Z,99.90
2022-11-06T20:32:05.146Z,99.90
2022-11-06T20:34:32.007Z,99.90
2022-11-06T20:36:59.383Z,99.90
2022-11-06T20:39:26.205Z,99.90
2022-11-06T20:41:53.007Z,99.90
2022-11-06T20:44:19.785Z,99.90
2022-11-06T20:46:47.984Z,99.90
2022-11-06T20:49:14.899Z,99.90
2022-11-06T20:52:11.576Z,99.90
2022-11-06T20:54:28.390Z,99.90
2022-11-06T20:56:55.132Z,99.90
2022-11-06T20:59:21.945Z,99.90
2022-11-06T21:01:48.833Z,99.90
2022-11-06T21:04:15.890Z,99.90
2022-11-06T21:06:42.630Z,99.90
2022-11-06T21:09:10.003Z,99.90
2022-11-06T21:11:36.771Z,99.90
2022-11-06T21:14:03.839Z,99.90
2022-11-06T21:16:36.644Z,99.90
2022-11-06T21:19:04.626Z,99.90
2022-11-06T21:21:35.001Z,99.90
2022-11-06T21:24:03.455Z,99.90
2022-11-06T21:26:35.861Z,99.90
2022-11-06T21:29:04.402Z,99.90
2022-11-06T21:31:32.129Z,99.90
2022-11-06T21:34:01.096Z,99.90
2022-11-06T21:36:31.811Z,99.90
2022-11-06T21:39:14.313Z,99.90
2022-11-06T21:41:41.513Z,99.90
2022-11-06T21:44:12.317Z,99.90
2022-11-06T21:46:44.332Z,99.90
2022-11-06T21:49:12.602Z,99.90
2022-11-06T21:51:39.452Z,99.90
2022-11-06T21:54:24.659Z,99.90
2022-11-06T21:56:51.840Z,99.90
2022-11-06T21:59:23.773Z,99.90
2022-11-06T22:01:50.647Z,99.90
2022-11-06T22:04:17.789Z,99.90
2022-11-06T22:06:44.584Z,99.90
2022-11-06T22:09:13.229Z,99.90
2022-11-06T22:11:42.735Z,99.90
2022-11-06T22:14:12.968Z,99.90
2022-11-06T22:16:42.091Z,99.90
2022-11-06T22:19:10.354Z,99.90
2022-11-06T22:21:39.119Z,99.90
2022-11-06T22:24:07.422Z,99.90
2022-11-06T22:26:35.879Z,99.90
2022-11-06T22:29:08.455Z,99.90
2022-11-06T22:31:35.683Z,99.90
2022-11-06T22:34:03.006Z,99.90
2022-11-06T22:36:29.834Z,99.90
2022-11-06T22:38:57.751Z,99.90
2022-11-06T22:41:25.644Z,99.90
2022-11-06T22:43:52.868Z,99.90
2022-11-06T22:46:23.031Z,99.90
2022-11-06T22:48:51.294Z,99.90
2022-11-06T22:51:23.950Z,99.90
2022-11-06T22:53:51.762Z,99.90
2022-11-06T22:56:19.497Z,99.90
2022-11-06T22:58:46.453Z,99.90
2022-11-06T23:01:13.869Z,99.90
2022-11-06T23:03:40.892Z,99.90
2022-11-06T23:06:09.781Z,99.90
2022-11-06T23:08:40.640Z,99.90
2022-11-06T23:11:12.693Z,99.90
2022-11-06T23:13:40.117Z,99.90
2022-11-06T23:16:09.939Z,99.90
2022-11-06T23:18:37.498Z,99.90
2022-11-06T23:21:15.420Z,99.90
2022-11-06T23:23:43.290Z,99.90
2022-11-06T23:26:19.230Z,99.90
2022-11-06T23:28:46.253Z,99.90
2022-11-06T23:31:14.697Z,99.90
2022-11-06T23:33:42.914Z,99.90
2022-11-06T23:36:11.883Z,99.90
2022-11-06T23:38:39.196Z,99.90
2022-11-06T23:41:42.569Z,99.90
2022-11-06T23:44:28.082Z,99.90
2022-11-06T23:46:54.850Z,99.90
2022-11-06T23:49:21.849Z,99.90
2022-11-06T23:51:49.210Z,99.90
2022-11-06T23:54:16.153Z,99.90
2022-11-06T23:56:42.893Z,99.90
2022-11-06T23:59:09.673Z,99.90
